sensor_id;sensor_type;location;lat;lon;timestamp;P1;durP1;ratioP1;P2;durP2;ratioP2
16073;SDS011;8141;52.664;5.074;2023-10-09T00:01:02;3.10;;;2.37;;
16073;SDS011;8141;52.664;5.074;2023-10-09T00:03:43;3.53;;;2.80;;
16073;SDS011;8141;52.664;5.074;2023-10-09T00:06:18;3.33;;;2.67;;
16073;SDS011;8141;52.664;5.074;2023-10-09T00:08:56;3.10;;;2.17;;
16073;SDS011;8141;52.664;5.074;2023-10-09T00:11:22;3.17;;;2.60;;
16073;SDS011;8141;52.664;5.074;2023-10-09T00:13:54;2.40;;;2.03;;
16073;SDS011;8141;52.664;5.074;2023-10-09T00:16:24;3.53;;;2.33;;
16073;SDS011;8141;52.664;5.074;2023-10-09T00:19:03;2.50;;;2.30;;
16073;SDS011;8141;52.664;5.074;2023-10-09T00:21:51;2.50;;;1.97;;
16073;SDS011;8141;52.664;5.074;2023-10-09T00:24:20;2.60;;;2.07;;
16073;SDS011;8141;52.664;5.074;2023-10-09T00:26:52;2.40;;;2.20;;
16073;SDS011;8141;52.664;5.074;2023-10-09T00:29:39;2.47;;;2.07;;
16073;SDS011;8141;52.664;5.074;2023-10-09T00:32:11;3.70;;;2.20;;
16073;SDS011;8141;52.664;5.074;2023-10-09T00:34:58;2.40;;;2.10;;
16073;SDS011;8141;52.664;5.074;2023-10-09T00:37:44;4.30;;;2.20;;
16073;SDS011;8141;52.664;5.074;2023-10-09T00:40:10;2.73;;;2.10;;
16073;SDS011;8141;52.664;5.074;2023-10-09T00:42:48;2.10;;;1.90;;
16073;SDS011;8141;52.664;5.074;2023-10-09T00:45:14;2.03;;;1.83;;
16073;SDS011;8141;52.664;5.074;2023-10-09T00:47:53;3.13;;;2.13;;
16073;SDS011;8141;52.664;5.074;2023-10-09T00:50:23;2.13;;;1.83;;
16073;SDS011;8141;52.664;5.074;2023-10-09T00:52:51;2.30;;;2.10;;
16073;SDS011;8141;52.664;5.074;2023-10-09T00:55:37;2.70;;;1.70;;
16073;SDS011;8141;52.664;5.074;2023-10-09T00:58:10;2.30;;;1.90;;
16073;SDS011;8141;52.664;5.074;2023-10-09T01:00:42;2.20;;;2.00;;
16073;SDS011;8141;52.664;5.074;2023-10-09T01:03:15;4.87;;;2.73;;
16073;SDS011;8141;52.664;5.074;2023-10-09T01:05:43;1.90;;;1.80;;
16073;SDS011;8141;52.664;5.074;2023-10-09T01:08:32;2.13;;;1.93;;
16073;SDS011;8141;52.664;5.074;2023-10-09T01:10:58;2.33;;;1.97;;
16073;SDS011;8141;52.664;5.074;2023-10-09T01:13:34;2.77;;;2.07;;
16073;SDS011;8141;52.664;5.074;2023-10-09T01:16:24;2.87;;;2.13;;
16073;SDS011;8141;52.664;5.074;2023-10-09T01:18:54;2.13;;;1.73;;
16073;SDS011;8141;52.664;5.074;2023-10-09T01:21:23;2.60;;;2.00;;
16073;SDS011;8141;52.664;5.074;2023-10-09T01:23:51;2.23;;;1.97;;
16073;SDS011;8141;52.664;5.074;2023-10-09T01:26:36;2.47;;;2.20;;
16073;SDS011;8141;52.664;5.074;2023-10-09T01:29:07;2.60;;;2.20;;
16073;SDS011;8141;52.664;5.074;2023-10-09T01:31:40;4.30;;;2.27;;
16073;SDS011;8141;52.664;5.074;2023-10-09T01:34:29;3.75;;;2.20;;
16073;SDS011;8141;52.664;5.074;2023-10-09T01:37:09;3.07;;;1.77;;
16073;SDS011;8141;52.664;5.074;2023-10-09T01:39:54;2.47;;;1.73;;
16073;SDS011;8141;52.664;5.074;2023-10-09T01:42:45;2.77;;;1.97;;
16073;SDS011;8141;52.664;5.074;2023-10-09T01:45:11;3.03;;;2.00;;
16073;SDS011;8141;52.664;5.074;2023-10-09T01:47:51;2.20;;;1.77;;
16073;SDS011;8141;52.664;5.074;2023-10-09T01:50:20;1.97;;;1.70;;
16073;SDS011;8141;52.664;5.074;2023-10-09T01:52:49;2.17;;;1.60;;
16073;SDS011;8141;52.664;5.074;2023-10-09T01:55:19;2.20;;;2.00;;
16073;SDS011;8141;52.664;5.074;2023-10-09T01:57:58;2.07;;;1.60;;
16073;SDS011;8141;52.664;5.074;2023-10-09T02:00:43;1.93;;;1.77;;
16073;SDS011;8141;52.664;5.074;2023-10-09T02:03:14;2.00;;;1.50;;
16073;SDS011;8141;52.664;5.074;2023-10-09T02:05:41;2.20;;;2.00;;
16073;SDS011;8141;52.664;5.074;2023-10-09T02:08:07;1.87;;;1.70;;
16073;SDS011;8141;52.664;5.074;2023-10-09T02:10:38;2.00;;;1.80;;
16073;SDS011;8141;52.664;5.074;2023-10-09T02:13:05;1.73;;;1.60;;
16073;SDS011;8141;52.664;5.074;2023-10-09T02:15:32;1.80;;;1.70;;
16073;SDS011;8141;52.664;5.074;2023-10-09T02:18:10;2.03;;;1.73;;
16073;SDS011;8141;52.664;5.074;2023-10-09T02:23:34;1.90;;;1.50;;
16073;SDS011;8141;52.664;5.074;2023-10-09T02:26:09;3.55;;;2.00;;
16073;SDS011;8141;52.664;5.074;2023-10-09T02:28:42;2.57;;;1.47;;
16073;SDS011;8141;52.664;5.074;2023-10-09T02:31:11;2.07;;;1.63;;
16073;SDS011;8141;52.664;5.074;2023-10-09T02:33:38;1.30;;;1.20;;
16073;SDS011;8141;52.664;5.074;2023-10-09T02:36:08;2.37;;;1.50;;
16073;SDS011;8141;52.664;5.074;2023-10-09T02:38:34;2.80;;;1.50;;
16073;SDS011;8141;52.664;5.074;2023-10-09T02:41:03;1.57;;;1.47;;
16073;SDS011;8141;52.664;5.074;2023-10-09T02:43:29;3.53;;;1.40;;
16073;SDS011;8141;52.664;5.074;2023-10-09T02:46:09;1.87;;;1.67;;
16073;SDS011;8141;52.664;5.074;2023-10-09T02:48:48;1.70;;;1.60;;
16073;SDS011;8141;52.664;5.074;2023-10-09T02:51:21;2.20;;;1.70;;
16073;SDS011;8141;52.664;5.074;2023-10-09T02:53:51;1.70;;;1.60;;
16073;SDS011;8141;52.664;5.074;2023-10-09T02:56:17;1.67;;;1.53;;
16073;SDS011;8141;52.664;5.074;2023-10-09T02:58:52;1.93;;;1.50;;
16073;SDS011;8141;52.664;5.074;2023-10-09T03:01:18;2.00;;;1.40;;
16073;SDS011;8141;52.664;5.074;2023-10-09T03:03:44;2.00;;;1.60;;
16073;SDS011;8141;52.664;5.074;2023-10-09T03:06:11;2.00;;;1.47;;
16073;SDS011;8141;52.664;5.074;2023-10-09T03:08:38;2.60;;;1.60;;
16073;SDS011;8141;52.664;5.074;2023-10-09T03:11:06;1.37;;;1.27;;
16073;SDS011;8141;52.664;5.074;2023-10-09T03:13:44;2.13;;;1.63;;
16073;SDS011;8141;52.664;5.074;2023-10-09T03:16:10;1.97;;;1.40;;
16073;SDS011;8141;52.664;5.074;2023-10-09T03:18:43;2.80;;;1.37;;
16073;SDS011;8141;52.664;5.074;2023-10-09T03:21:14;1.70;;;1.37;;
16073;SDS011;8141;52.664;5.074;2023-10-09T03:23:41;2.20;;;1.50;;
16073;SDS011;8141;52.664;5.074;2023-10-09T03:26:14;1.60;;;1.50;;
16073;SDS011;8141;52.664;5.074;2023-10-09T03:28:43;1.80;;;1.40;;
16073;SDS011;8141;52.664;5.074;2023-10-09T03:31:11;1.40;;;1.30;;
16073;SDS011;8141;52.664;5.074;2023-10-09T03:33:37;1.30;;;1.20;;
16073;SDS011;8141;52.664;5.074;2023-10-09T03:36:03;1.33;;;1.23;;
16073;SDS011;8141;52.664;5.074;2023-10-09T03:38:36;1.57;;;1.40;;
16073;SDS011;8141;52.664;5.074;2023-10-09T03:41:04;2.00;;;1.37;;
16073;SDS011;8141;52.664;5.074;2023-10-09T03:43:34;1.60;;;1.50;;
16073;SDS011;8141;52.664;5.074;2023-10-09T03:46:05;1.47;;;1.37;;
16073;SDS011;8141;52.664;5.074;2023-10-09T03:48:49;1.83;;;1.50;;
16073;SDS011;8141;52.664;5.074;2023-10-09T03:51:21;1.63;;;1.40;;
16073;SDS011;8141;52.664;5.074;2023-10-09T03:53:47;1.43;;;1.33;;
16073;SDS011;8141;52.664;5.074;2023-10-09T03:56:14;1.37;;;1.20;;
16073;SDS011;8141;52.664;5.074;2023-10-09T03:58:42;1.60;;;1.50;;
16073;SDS011;8141;52.664;5.074;2023-10-09T04:01:18;2.33;;;1.40;;
16073;SDS011;8141;52.664;5.074;2023-10-09T04:03:52;1.60;;;1.20;;
16073;SDS011;8141;52.664;5.074;2023-10-09T04:06:24;1.60;;;1.43;;
16073;SDS011;8141;52.664;5.074;2023-10-09T04:08:55;1.53;;;1.20;;
16073;SDS011;8141;52.664;5.074;2023-10-09T04:11:23;1.53;;;1.20;;
16073;SDS011;8141;52.664;5.074;2023-10-09T04:13:52;1.30;;;1.13;;
16073;SDS011;8141;52.664;5.074;2023-10-09T04:16:19;1.97;;;1.43;;
16073;SDS011;8141;52.664;5.074;2023-10-09T04:18:59;1.77;;;1.33;;
16073;SDS011;8141;52.664;5.074;2023-10-09T04:21:36;1.60;;;1.50;;
16073;SDS011;8141;52.664;5.074;2023-10-09T04:24:06;1.50;;;1.40;;
16073;SDS011;8141;52.664;5.074;2023-10-09T04:26:42;1.30;;;1.13;;
16073;SDS011;8141;52.664;5.074;2023-10-09T04:29:13;1.63;;;1.30;;
16073;SDS011;8141;52.664;5.074;2023-10-09T04:31:48;1.40;;;1.30;;
16073;SDS011;8141;52.664;5.074;2023-10-09T04:34:17;1.50;;;1.40;;
16073;SDS011;8141;52.664;5.074;2023-10-09T04:36:47;1.50;;;1.40;;
16073;SDS011;8141;52.664;5.074;2023-10-09T04:39:22;2.07;;;1.50;;
16073;SDS011;8141;52.664;5.074;2023-10-09T04:41:54;1.43;;;1.27;;
16073;SDS011;8141;52.664;5.074;2023-10-09T04:44:39;1.10;;;1.00;;
16073;SDS011;8141;52.664;5.074;2023-10-09T04:47:27;2.70;;;1.40;;
16073;SDS011;8141;52.664;5.074;2023-10-09T04:50:15;1.83;;;1.50;;
16073;SDS011;8141;52.664;5.074;2023-10-09T04:52:44;7.90;;;2.20;;
16073;SDS011;8141;52.664;5.074;2023-10-09T04:55:10;7.47;;;3.37;;
16073;SDS011;8141;52.664;5.074;2023-10-09T04:57:36;6.80;;;3.00;;
16073;SDS011;8141;52.664;5.074;2023-10-09T05:02:48;6.83;;;3.17;;
16073;SDS011;8141;52.664;5.074;2023-10-09T05:05:35;8.50;;;3.27;;
16073;SDS011;8141;52.664;5.074;2023-10-09T05:13:24;6.17;;;3.13;;
16073;SDS011;8141;52.664;5.074;2023-10-09T05:16:15;9.53;;;3.50;;
16073;SDS011;8141;52.664;5.074;2023-10-09T05:18:56;11.23;;;4.37;;
16073;SDS011;8141;52.664;5.074;2023-10-09T05:24:02;13.87;;;4.30;;
16073;SDS011;8141;52.664;5.074;2023-10-09T05:26:38;10.17;;;5.10;;
16073;SDS011;8141;52.664;5.074;2023-10-09T05:29:12;6.47;;;3.50;;
16073;SDS011;8141;52.664;5.074;2023-10-09T05:31:47;9.77;;;4.27;;
16073;SDS011;8141;52.664;5.074;2023-10-09T05:34:35;9.03;;;3.90;;
16073;SDS011;8141;52.664;5.074;2023-10-09T05:37:19;9.07;;;4.10;;
16073;SDS011;8141;52.664;5.074;2023-10-09T05:39:52;8.57;;;4.33;;
16073;SDS011;8141;52.664;5.074;2023-10-09T05:42:29;9.55;;;4.50;;
16073;SDS011;8141;52.664;5.074;2023-10-09T05:45:06;9.67;;;4.83;;
16073;SDS011;8141;52.664;5.074;2023-10-09T05:47:52;7.87;;;4.40;;
16073;SDS011;8141;52.664;5.074;2023-10-09T05:50:21;10.47;;;5.07;;
16073;SDS011;8141;52.664;5.074;2023-10-09T05:52:52;9.37;;;4.63;;
16073;SDS011;8141;52.664;5.074;2023-10-09T05:55:31;9.97;;;4.60;;
16073;SDS011;8141;52.664;5.074;2023-10-09T05:58:16;10.38;;;4.72;;
16073;SDS011;8141;52.664;5.074;2023-10-09T06:01:01;9.63;;;4.60;;
16073;SDS011;8141;52.664;5.074;2023-10-09T06:03:45;9.40;;;4.23;;
16073;SDS011;8141;52.664;5.074;2023-10-09T06:06:14;9.17;;;4.30;;
16073;SDS011;8141;52.664;5.074;2023-10-09T06:09:06;10.87;;;5.87;;
16073;SDS011;8141;52.664;5.074;2023-10-09T06:11:55;10.00;;;5.07;;
16073;SDS011;8141;52.664;5.074;2023-10-09T06:14:41;10.93;;;5.00;;
16073;SDS011;8141;52.664;5.074;2023-10-09T06:17:07;12.83;;;4.97;;
16073;SDS011;8141;52.664;5.074;2023-10-09T06:19:38;10.03;;;4.67;;
16073;SDS011;8141;52.664;5.074;2023-10-09T06:22:10;13.50;;;5.20;;
16073;SDS011;8141;52.664;5.074;2023-10-09T06:24:54;9.97;;;5.13;;
16073;SDS011;8141;52.664;5.074;2023-10-09T06:27:22;10.07;;;5.40;;
16073;SDS011;8141;52.664;5.074;2023-10-09T06:29:54;14.67;;;5.43;;
16073;SDS011;8141;52.664;5.074;2023-10-09T06:32:40;13.37;;;5.13;;
16073;SDS011;8141;52.664;5.074;2023-10-09T06:35:33;11.97;;;5.60;;
16073;SDS011;8141;52.664;5.074;2023-10-09T06:38:00;11.63;;;5.40;;
16073;SDS011;8141;52.664;5.074;2023-10-09T06:40:27;11.77;;;5.20;;
16073;SDS011;8141;52.664;5.074;2023-10-09T06:43:15;10.43;;;5.13;;
16073;SDS011;8141;52.664;5.074;2023-10-09T06:45:47;13.03;;;4.93;;
16073;SDS011;8141;52.664;5.074;2023-10-09T06:51:04;12.60;;;5.23;;
16073;SDS011;8141;52.664;5.074;2023-10-09T06:53:40;12.63;;;5.37;;
16073;SDS011;8141;52.664;5.074;2023-10-09T07:01:26;13.53;;;5.73;;
16073;SDS011;8141;52.664;5.074;2023-10-09T07:03:52;11.10;;;5.23;;
16073;SDS011;8141;52.664;5.074;2023-10-09T07:06:20;11.50;;;4.93;;
16073;SDS011;8141;52.664;5.074;2023-10-09T07:11:37;11.17;;;4.93;;
16073;SDS011;8141;52.664;5.074;2023-10-09T07:14:26;11.83;;;5.63;;
16073;SDS011;8141;52.664;5.074;2023-10-09T07:17:17;15.30;;;5.17;;
16073;SDS011;8141;52.664;5.074;2023-10-09T07:19:58;10.90;;;5.17;;
16073;SDS011;8141;52.664;5.074;2023-10-09T07:22:54;13.53;;;5.47;;
16073;SDS011;8141;52.664;5.074;2023-10-09T07:25:38;11.37;;;5.30;;
16073;SDS011;8141;52.664;5.074;2023-10-09T07:28:19;12.87;;;5.47;;
16073;SDS011;8141;52.664;5.074;2023-10-09T07:31:07;10.40;;;4.90;;
16073;SDS011;8141;52.664;5.074;2023-10-09T07:33:42;12.07;;;5.80;;
16073;SDS011;8141;52.664;5.074;2023-10-09T07:36:21;16.50;;;5.97;;
16073;SDS011;8141;52.664;5.074;2023-10-09T07:39:00;10.97;;;5.10;;
16073;SDS011;8141;52.664;5.074;2023-10-09T07:41:31;10.77;;;5.83;;
16073;SDS011;8141;52.664;5.074;2023-10-09T07:43:57;12.23;;;5.47;;
16073;SDS011;8141;52.664;5.074;2023-10-09T07:46:23;14.40;;;5.70;;
16073;SDS011;8141;52.664;5.074;2023-10-09T07:48:59;13.85;;;5.65;;
16073;SDS011;8141;52.664;5.074;2023-10-09T07:51:35;9.75;;;5.05;;
16073;SDS011;8141;52.664;5.074;2023-10-09T07:54:02;10.27;;;5.10;;
16073;SDS011;8141;52.664;5.074;2023-10-09T07:56:39;12.57;;;5.83;;
16073;SDS011;8141;52.664;5.074;2023-10-09T07:59:07;11.77;;;6.10;;
16073;SDS011;8141;52.664;5.074;2023-10-09T08:01:46;10.70;;;5.30;;
16073;SDS011;8141;52.664;5.074;2023-10-09T08:04:23;10.77;;;5.00;;
16073;SDS011;8141;52.664;5.074;2023-10-09T08:07:04;8.32;;;4.57;;
16073;SDS011;8141;52.664;5.074;2023-10-09T08:09:34;12.13;;;5.23;;
16073;SDS011;8141;52.664;5.074;2023-10-09T08:12:11;12.40;;;5.33;;
16073;SDS011;8141;52.664;5.074;2023-10-09T08:14:57;8.77;;;4.63;;
16073;SDS011;8141;52.664;5.074;2023-10-09T08:17:56;15.57;;;6.17;;
16073;SDS011;8141;52.664;5.074;2023-10-09T08:20:29;12.20;;;5.07;;
16073;SDS011;8141;52.664;5.074;2023-10-09T08:23:16;12.20;;;5.10;;
16073;SDS011;8141;52.664;5.074;2023-10-09T08:26:08;10.03;;;4.73;;
16073;SDS011;8141;52.664;5.074;2023-10-09T08:28:44;13.30;;;5.63;;
16073;SDS011;8141;52.664;5.074;2023-10-09T08:31:14;9.57;;;4.77;;
16073;SDS011;8141;52.664;5.074;2023-10-09T08:34:10;9.43;;;4.70;;
16073;SDS011;8141;52.664;5.074;2023-10-09T08:36:50;9.50;;;5.07;;
16073;SDS011;8141;52.664;5.074;2023-10-09T08:39:20;8.73;;;4.77;;
16073;SDS011;8141;52.664;5.074;2023-10-09T08:41:55;11.43;;;5.20;;
16073;SDS011;8141;52.664;5.074;2023-10-09T08:44:26;9.03;;;4.73;;
16073;SDS011;8141;52.664;5.074;2023-10-09T08:46:54;8.70;;;4.10;;
16073;SDS011;8141;52.664;5.074;2023-10-09T08:49:22;11.07;;;5.30;;
16073;SDS011;8141;52.664;5.074;2023-10-09T08:51:52;10.03;;;5.20;;
16073;SDS011;8141;52.664;5.074;2023-10-09T08:54:18;12.80;;;5.00;;
16073;SDS011;8141;52.664;5.074;2023-10-09T08:56:45;10.37;;;4.93;;
16073;SDS011;8141;52.664;5.074;2023-10-09T08:59:17;11.53;;;4.80;;
16073;SDS011;8141;52.664;5.074;2023-10-09T09:01:45;9.53;;;4.57;;
16073;SDS011;8141;52.664;5.074;2023-10-09T09:07:01;8.00;;;4.40;;
16073;SDS011;8141;52.664;5.074;2023-10-09T09:09:27;11.57;;;5.00;;
16073;SDS011;8141;52.664;5.074;2023-10-09T09:11:55;9.27;;;4.63;;
16073;SDS011;8141;52.664;5.074;2023-10-09T09:14:21;9.53;;;5.10;;
16073;SDS011;8141;52.664;5.074;2023-10-09T09:17:04;9.20;;;4.50;;
16073;SDS011;8141;52.664;5.074;2023-10-09T09:19:36;7.63;;;4.20;;
16073;SDS011;8141;52.664;5.074;2023-10-09T09:22:03;8.10;;;4.23;;
16073;SDS011;8141;52.664;5.074;2023-10-09T09:24:39;6.82;;;4.28;;
16073;SDS011;8141;52.664;5.074;2023-10-09T09:27:26;9.15;;;4.00;;
16073;SDS011;8141;52.664;5.074;2023-10-09T09:30:24;8.33;;;4.27;;
16073;SDS011;8141;52.664;5.074;2023-10-09T09:33:22;7.13;;;4.00;;
16073;SDS011;8141;52.664;5.074;2023-10-09T09:36:07;8.65;;;4.60;;
16073;SDS011;8141;52.664;5.074;2023-10-09T09:38:36;8.53;;;4.17;;
16073;SDS011;8141;52.664;5.074;2023-10-09T09:41:16;6.63;;;4.13;;
16073;SDS011;8141;52.664;5.074;2023-10-09T09:43:56;8.07;;;4.20;;
16073;SDS011;8141;52.664;5.074;2023-10-09T09:46:29;8.47;;;4.07;;
16073;SDS011;8141;52.664;5.074;2023-10-09T09:49:05;8.53;;;3.33;;
16073;SDS011;8141;52.664;5.074;2023-10-09T09:51:41;10.50;;;4.60;;
16073;SDS011;8141;52.664;5.074;2023-10-09T09:54:12;8.40;;;4.50;;
16073;SDS011;8141;52.664;5.074;2023-10-09T09:56:41;7.60;;;4.00;;
16073;SDS011;8141;52.664;5.074;2023-10-09T09:59:17;7.17;;;3.73;;
16073;SDS011;8141;52.664;5.074;2023-10-09T10:01:47;7.83;;;3.87;;
16073;SDS011;8141;52.664;5.074;2023-10-09T10:04:22;6.13;;;3.77;;
16073;SDS011;8141;52.664;5.074;2023-10-09T10:06:55;8.60;;;4.70;;
16073;SDS011;8141;52.664;5.074;2023-10-09T10:09:35;7.20;;;3.47;;
16073;SDS011;8141;52.664;5.074;2023-10-09T10:12:07;9.30;;;4.60;;
16073;SDS011;8141;52.664;5.074;2023-10-09T10:14:57;9.30;;;3.63;;
16073;SDS011;8141;52.664;5.074;2023-10-09T10:20:44;5.97;;;3.73;;
16073;SDS011;8141;52.664;5.074;2023-10-09T10:23:41;8.40;;;4.10;;
16073;SDS011;8141;52.664;5.074;2023-10-09T10:26:16;6.57;;;3.93;;
16073;SDS011;8141;52.664;5.074;2023-10-09T10:28:43;8.60;;;4.37;;
16073;SDS011;8141;52.664;5.074;2023-10-09T10:31:11;7.33;;;4.13;;
16073;SDS011;8141;52.664;5.074;2023-10-09T10:36:20;6.30;;;4.13;;
16073;SDS011;8141;52.664;5.074;2023-10-09T10:39:04;8.63;;;4.00;;
16073;SDS011;8141;52.664;5.074;2023-10-09T10:41:52;8.50;;;4.40;;
16073;SDS011;8141;52.664;5.074;2023-10-09T10:44:29;7.43;;;4.10;;
16073;SDS011;8141;52.664;5.074;2023-10-09T10:47:07;10.97;;;4.57;;
16073;SDS011;8141;52.664;5.074;2023-10-09T10:49:53;14.60;;;4.55;;
16073;SDS011;8141;52.664;5.074;2023-10-09T10:52:23;7.40;;;4.03;;
16073;SDS011;8141;52.664;5.074;2023-10-09T10:58:00;7.20;;;3.83;;
16073;SDS011;8141;52.664;5.074;2023-10-09T11:00:27;7.60;;;3.80;;
16073;SDS011;8141;52.664;5.074;2023-10-09T11:03:19;7.53;;;4.13;;
16073;SDS011;8141;52.664;5.074;2023-10-09T11:05:55;8.67;;;4.67;;
16073;SDS011;8141;52.664;5.074;2023-10-09T11:08:38;8.10;;;4.17;;
16073;SDS011;8141;52.664;5.074;2023-10-09T11:11:19;7.07;;;3.77;;
16073;SDS011;8141;52.664;5.074;2023-10-09T11:13:45;8.43;;;4.53;;
16073;SDS011;8141;52.664;5.074;2023-10-09T11:16:19;7.23;;;4.17;;
16073;SDS011;8141;52.664;5.074;2023-10-09T11:19:07;11.50;;;4.20;;
16073;SDS011;8141;52.664;5.074;2023-10-09T11:21:52;10.63;;;5.10;;
16073;SDS011;8141;52.664;5.074;2023-10-09T11:24:31;9.80;;;4.87;;
16073;SDS011;8141;52.664;5.074;2023-10-09T11:27:01;8.50;;;4.70;;
16073;SDS011;8141;52.664;5.074;2023-10-09T11:29:35;11.87;;;4.40;;
16073;SDS011;8141;52.664;5.074;2023-10-09T11:32:07;8.95;;;4.95;;
16073;SDS011;8141;52.664;5.074;2023-10-09T11:34:47;7.67;;;4.00;;
16073;SDS011;8141;52.664;5.074;2023-10-09T11:37:18;10.07;;;4.37;;
16073;SDS011;8141;52.664;5.074;2023-10-09T11:39:54;9.97;;;4.57;;
16073;SDS011;8141;52.664;5.074;2023-10-09T11:42:21;9.57;;;4.60;;
16073;SDS011;8141;52.664;5.074;2023-10-09T11:45:03;9.00;;;4.60;;
16073;SDS011;8141;52.664;5.074;2023-10-09T11:47:49;9.75;;;5.07;;
16073;SDS011;8141;52.664;5.074;2023-10-09T11:50:41;9.40;;;4.47;;
16073;SDS011;8141;52.664;5.074;2023-10-09T11:53:08;12.87;;;5.00;;
16073;SDS011;8141;52.664;5.074;2023-10-09T11:56:05;10.15;;;4.70;;
16073;SDS011;8141;52.664;5.074;2023-10-09T11:58:34;10.57;;;4.73;;
16073;SDS011;8141;52.664;5.074;2023-10-09T12:01:10;8.47;;;4.63;;
16073;SDS011;8141;52.664;5.074;2023-10-09T12:03:42;8.90;;;4.73;;
16073;SDS011;8141;52.664;5.074;2023-10-09T12:06:09;13.37;;;4.87;;
16073;SDS011;8141;52.664;5.074;2023-10-09T12:08:39;10.33;;;5.20;;
16073;SDS011;8141;52.664;5.074;2023-10-09T12:11:08;10.77;;;5.07;;
16073;SDS011;8141;52.664;5.074;2023-10-09T12:13:34;10.97;;;4.40;;
16073;SDS011;8141;52.664;5.074;2023-10-09T12:16:03;11.77;;;5.17;;
16073;SDS011;8141;52.664;5.074;2023-10-09T12:18:33;8.93;;;4.53;;
16073;SDS011;8141;52.664;5.074;2023-10-09T12:20:59;12.37;;;5.07;;
16073;SDS011;8141;52.664;5.074;2023-10-09T12:23:29;10.03;;;4.73;;
16073;SDS011;8141;52.664;5.074;2023-10-09T12:26:00;8.77;;;4.70;;
16073;SDS011;8141;52.664;5.074;2023-10-09T12:28:28;10.07;;;4.70;;
16073;SDS011;8141;52.664;5.074;2023-10-09T12:30:54;12.53;;;5.13;;
16073;SDS011;8141;52.664;5.074;2023-10-09T12:33:22;10.77;;;5.73;;
16073;SDS011;8141;52.664;5.074;2023-10-09T12:35:54;11.77;;;4.50;;
16073;SDS011;8141;52.664;5.074;2023-10-09T12:38:26;13.30;;;5.57;;
16073;SDS011;8141;52.664;5.074;2023-10-09T12:41:06;19.50;;;6.07;;
16073;SDS011;8141;52.664;5.074;2023-10-09T12:43:50;12.37;;;5.77;;
16073;SDS011;8141;52.664;5.074;2023-10-09T12:46:17;20.97;;;7.40;;
16073;SDS011;8141;52.664;5.074;2023-10-09T12:48:47;17.50;;;6.60;;
16073;SDS011;8141;52.664;5.074;2023-10-09T12:51:14;15.47;;;6.23;;
16073;SDS011;8141;52.664;5.074;2023-10-09T12:53:43;18.23;;;6.73;;
16073;SDS011;8141;52.664;5.074;2023-10-09T12:56:21;19.77;;;7.33;;
16073;SDS011;8141;52.664;5.074;2023-10-09T12:59:03;20.10;;;6.77;;
16073;SDS011;8141;52.664;5.074;2023-10-09T13:01:30;20.90;;;7.17;;
16073;SDS011;8141;52.664;5.074;2023-10-09T13:04:07;23.07;;;7.73;;
16073;SDS011;8141;52.664;5.074;2023-10-09T13:06:37;15.57;;;6.60;;
16073;SDS011;8141;52.664;5.074;2023-10-09T13:09:14;16.43;;;6.97;;
16073;SDS011;8141;52.664;5.074;2023-10-09T13:11:41;15.33;;;6.63;;
16073;SDS011;8141;52.664;5.074;2023-10-09T13:14:09;16.00;;;6.37;;
16073;SDS011;8141;52.664;5.074;2023-10-09T13:16:47;19.90;;;7.07;;
16073;SDS011;8141;52.664;5.074;2023-10-09T13:19:17;19.77;;;7.13;;
16073;SDS011;8141;52.664;5.074;2023-10-09T13:21:43;18.40;;;7.70;;
16073;SDS011;8141;52.664;5.074;2023-10-09T13:24:09;14.90;;;5.93;;
16073;SDS011;8141;52.664;5.074;2023-10-09T13:26:39;16.30;;;5.87;;
16073;SDS011;8141;52.664;5.074;2023-10-09T13:29:06;15.03;;;6.20;;
16073;SDS011;8141;52.664;5.074;2023-10-09T13:31:36;17.03;;;6.10;;
16073;SDS011;8141;52.664;5.074;2023-10-09T13:34:05;17.83;;;5.83;;
16073;SDS011;8141;52.664;5.074;2023-10-09T13:36:31;14.27;;;6.50;;
16073;SDS011;8141;52.664;5.074;2023-10-09T13:39:03;10.70;;;5.33;;
16073;SDS011;8141;52.664;5.074;2023-10-09T13:41:50;12.80;;;5.77;;
16073;SDS011;8141;52.664;5.074;2023-10-09T13:44:27;14.30;;;6.17;;
16073;SDS011;8141;52.664;5.074;2023-10-09T13:46:59;12.83;;;5.57;;
16073;SDS011;8141;52.664;5.074;2023-10-09T13:49:27;8.90;;;4.67;;
16073;SDS011;8141;52.664;5.074;2023-10-09T13:51:56;11.60;;;6.23;;
16073;SDS011;8141;52.664;5.074;2023-10-09T13:54:26;13.13;;;5.50;;
16073;SDS011;8141;52.664;5.074;2023-10-09T13:56:55;11.40;;;5.00;;
16073;SDS011;8141;52.664;5.074;2023-10-09T13:59:21;11.60;;;5.33;;
16073;SDS011;8141;52.664;5.074;2023-10-09T14:01:50;15.70;;;5.83;;
16073;SDS011;8141;52.664;5.074;2023-10-09T14:04:19;12.03;;;5.33;;
16073;SDS011;8141;52.664;5.074;2023-10-09T14:06:48;8.70;;;4.60;;
16073;SDS011;8141;52.664;5.074;2023-10-09T14:09:21;10.07;;;4.57;;
16073;SDS011;8141;52.664;5.074;2023-10-09T14:12:03;9.10;;;4.40;;
16073;SDS011;8141;52.664;5.074;2023-10-09T14:14:38;9.37;;;4.40;;
16073;SDS011;8141;52.664;5.074;2023-10-09T14:17:11;7.67;;;4.10;;
16073;SDS011;8141;52.664;5.074;2023-10-09T14:19:39;11.73;;;5.17;;
16073;SDS011;8141;52.664;5.074;2023-10-09T14:22:07;9.33;;;4.43;;
16073;SDS011;8141;52.664;5.074;2023-10-09T14:24:32;8.57;;;4.57;;
16073;SDS011;8141;52.664;5.074;2023-10-09T14:27:02;8.77;;;4.13;;
16073;SDS011;8141;52.664;5.074;2023-10-09T14:29:29;9.13;;;4.90;;
16073;SDS011;8141;52.664;5.074;2023-10-09T14:32:02;8.87;;;4.13;;
16073;SDS011;8141;52.664;5.074;2023-10-09T14:34:28;8.43;;;4.27;;
16073;SDS011;8141;52.664;5.074;2023-10-09T14:36:58;6.57;;;3.63;;
16073;SDS011;8141;52.664;5.074;2023-10-09T14:39:28;7.30;;;4.20;;
16073;SDS011;8141;52.664;5.074;2023-10-09T14:41:54;7.77;;;4.10;;
16073;SDS011;8141;52.664;5.074;2023-10-09T14:44:22;8.13;;;3.90;;
16073;SDS011;8141;52.664;5.074;2023-10-09T14:46:49;8.40;;;3.87;;
16073;SDS011;8141;52.664;5.074;2023-10-09T14:49:15;6.53;;;3.83;;
16073;SDS011;8141;52.664;5.074;2023-10-09T14:51:46;6.37;;;3.27;;
16073;SDS011;8141;52.664;5.074;2023-10-09T14:54:12;6.10;;;3.63;;
16073;SDS011;8141;52.664;5.074;2023-10-09T14:56:43;9.60;;;5.07;;
16073;SDS011;8141;52.664;5.074;2023-10-09T14:59:10;9.43;;;3.93;;
16073;SDS011;8141;52.664;5.074;2023-10-09T15:01:37;9.40;;;4.23;;
16073;SDS011;8141;52.664;5.074;2023-10-09T15:04:03;7.87;;;3.27;;
16073;SDS011;8141;52.664;5.074;2023-10-09T15:06:29;9.13;;;4.00;;
16073;SDS011;8141;52.664;5.074;2023-10-09T15:08:58;11.73;;;4.60;;
16073;SDS011;8141;52.664;5.074;2023-10-09T15:11:33;5.87;;;3.53;;
16073;SDS011;8141;52.664;5.074;2023-10-09T15:13:59;7.43;;;4.10;;
16073;SDS011;8141;52.664;5.074;2023-10-09T15:16:25;11.00;;;4.50;;
16073;SDS011;8141;52.664;5.074;2023-10-09T15:18:55;17.27;;;5.63;;
16073;SDS011;8141;52.664;5.074;2023-10-09T15:21:22;16.50;;;5.20;;
16073;SDS011;8141;52.664;5.074;2023-10-09T15:23:57;16.07;;;6.27;;
16073;SDS011;8141;52.664;5.074;2023-10-09T15:26:24;22.13;;;7.57;;
16073;SDS011;8141;52.664;5.074;2023-10-09T15:28:51;19.00;;;6.93;;
16073;SDS011;8141;52.664;5.074;2023-10-09T15:31:17;25.30;;;7.93;;
16073;SDS011;8141;52.664;5.074;2023-10-09T15:33:44;31.83;;;9.70;;
16073;SDS011;8141;52.664;5.074;2023-10-09T15:36:13;40.57;;;11.83;;
16073;SDS011;8141;52.664;5.074;2023-10-09T15:38:42;28.27;;;10.40;;
16073;SDS011;8141;52.664;5.074;2023-10-09T15:41:08;23.67;;;7.93;;
16073;SDS011;8141;52.664;5.074;2023-10-09T15:43:36;26.40;;;8.83;;
16073;SDS011;8141;52.664;5.074;2023-10-09T15:46:03;28.47;;;9.20;;
16073;SDS011;8141;52.664;5.074;2023-10-09T15:48:36;23.47;;;7.87;;
16073;SDS011;8141;52.664;5.074;2023-10-09T15:51:02;18.57;;;7.33;;
16073;SDS011;8141;52.664;5.074;2023-10-09T15:53:28;15.80;;;6.03;;
16073;SDS011;8141;52.664;5.074;2023-10-09T15:55:54;18.10;;;6.13;;
16073;SDS011;8141;52.664;5.074;2023-10-09T15:58:22;21.73;;;7.07;;
16073;SDS011;8141;52.664;5.074;2023-10-09T16:00:49;16.73;;;6.53;;
16073;SDS011;8141;52.664;5.074;2023-10-09T16:03:15;14.47;;;6.20;;
16073;SDS011;8141;52.664;5.074;2023-10-09T16:05:40;14.73;;;5.70;;
16073;SDS011;8141;52.664;5.074;2023-10-09T16:08:06;10.40;;;5.00;;
16073;SDS011;8141;52.664;5.074;2023-10-09T16:10:33;12.40;;;5.27;;